Time;durP1;ratioP1;P1;durP2;ratioP2;P2;SDS_P1;SDS_P2;PMS_P1;PMS_P2;Temp;Humidity;BMP_temperature;BMP_pressure;BME280_temperature;BME280_humidity;BME280_pressure;Samples;Min_cycle;Max_cycle;Signal;HPM_P1;HPM_P2
2022/05/16 00:02:03;;;;;;;4.63;2.60;;;;;;;;;;4946262;29;20186;-76
2022/05/16 00:04:29;;;;;;;6.40;2.90;;;;;;;;;;4945355;29;20192;-76
2022/05/16 00:06:55;;;;;;;3.03;2.50;;;;;;;;;;4927136;29;20182;-76
2022/05/16 00:09:22;;;;;;;2.80;2.20;;;;;;;;;;4945672;29;20477;-76
2022/05/16 00:11:48;;;;;;;3.33;2.63;;;;;;;;;;4945701;29;20181;-75
2022/05/16 00:14:14;;;;;;;3.37;2.50;;;;;;;;;;4944910;29;20244;-75
2022/05/16 00:16:40;;;;;;;3.83;2.10;;;;;;;;;;4928396;29;20460;-75
2022/05/16 00:19:06;;;;;;;3.87;2.50;;;;;;;;;;4929613;29;20475;-76
2022/05/16 00:21:32;;;;;;;4.72;2.70;;;;;;;;;;4937012;29;20432;-76
2022/05/16 00:23:58;;;;;;;2.58;2.30;;;;;;;;;;4942406;29;20190;-76
2022/05/16 00:26:24;;;;;;;3.25;2.95;;;;;;;;;;4946180;29;20616;-76
2022/05/16 00:28:50;;;;;;;3.37;2.50;;;;;;;;;;4945771;29;20205;-76
2022/05/16 00:31:17;;;;;;;3.63;2.47;;;;;;;;;;4945716;29;20516;-75
2022/05/16 00:33:43;;;;;;;2.50;2.30;;;;;;;;;;4946739;29;20177;-76
2022/05/16 00:36:09;;;;;;;3.22;2.55;;;;;;;;;;4946242;29;20197;-76
2022/05/16 00:38:35;;;;;;;3.85;2.80;;;;;;;;;;4945982;29;20193;-76
2022/05/16 00:41:02;;;;;;;6.77;3.07;;;;;;;;;;4928327;29;20261;-76
2022/05/16 00:43:46;;;;;;;3.38;3.00;;;;;;;;;;4945703;29;20441;-76
2022/05/16 00:46:13;;;;;;;2.97;2.50;;;;;;;;;;4943622;29;20262;-76
2022/05/16 00:48:39;;;;;;;2.60;2.05;;;;;;;;;;4927062;29;20188;-76
2022/05/16 00:51:06;;;;;;;6.47;2.20;;;;;;;;;;4945864;29;20244;-76
2022/05/16 00:53:33;;;;;;;3.10;2.90;;;;;;;;;;4945613;29;20468;-76
2022/05/16 00:55:59;;;;;;;4.50;2.60;;;;;;;;;;4945814;29;20205;-76
2022/05/16 00:58:25;;;;;;;2.70;2.50;;;;;;;;;;4945859;29;20245;-76
2022/05/16 01:00:51;;;;;;;3.03;2.20;;;;;;;;;;4941784;29;20445;-76
2022/05/16 01:06:04;;;;;;;3.78;2.25;;;;;;;;;;4945636;29;20455;-76
2022/05/16 01:08:32;;;;;;;2.72;2.53;;;;;;;;;;4945017;29;20185;-76
2022/05/16 01:11:01;;;;;;;2.33;2.13;;;;;;;;;;4945662;29;20195;-75
2022/05/16 01:13:28;;;;;;;4.53;2.63;;;;;;;;;;4944811;29;20276;-76
2022/05/16 01:15:54;;;;;;;2.60;2.40;;;;;;;;;;4946507;29;20667;-76
2022/05/16 01:18:22;;;;;;;3.35;2.50;;;;;;;;;;4944614;29;20225;-76
2022/05/16 01:21:06;;;;;;;5.10;2.40;;;;;;;;;;4945648;29;20192;-76
2022/05/16 01:23:34;;;;;;;3.40;2.90;;;;;;;;;;4944972;29;20248;-76
2022/05/16 01:26:01;;;;;;;2.83;2.50;;;;;;;;;;4928378;29;20181;-76
2022/05/16 01:28:27;;;;;;;5.57;3.10;;;;;;;;;;4927826;29;20201;-76
2022/05/16 01:30:54;;;;;;;3.97;2.70;;;;;;;;;;4946211;29;20189;-76
2022/05/16 01:33:22;;;;;;;2.72;2.50;;;;;;;;;;4928210;29;20437;-75
2022/05/16 01:35:48;;;;;;;5.78;2.55;;;;;;;;;;4942788;29;20205;-75
2022/05/16 01:38:26;;;;;;;4.30;3.00;;;;;;;;;;4944401;29;20581;-75
2022/05/16 01:40:54;;;;;;;2.60;2.35;;;;;;;;;;4945305;29;20177;-75
2022/05/16 01:43:23;;;;;;;6.70;2.90;;;;;;;;;;4944960;29;20179;-76
2022/05/16 01:45:50;;;;;;;2.95;2.70;;;;;;;;;;4946254;29;20184;-75
2022/05/16 01:48:16;;;;;;;4.10;2.58;;;;;;;;;;4927920;29;20308;-75
2022/05/16 01:50:44;;;;;;;2.80;2.30;;;;;;;;;;4926457;29;20192;-75
2022/05/16 01:53:10;;;;;;;6.03;3.35;;;;;;;;;;4927102;29;20193;-75
2022/05/16 01:55:36;;;;;;;3.65;2.50;;;;;;;;;;4944982;29;20270;-74
2022/05/16 01:58:03;;;;;;;3.20;2.90;;;;;;;;;;4929008;29;20551;-75
2022/05/16 02:00:31;;;;;;;3.25;2.80;;;;;;;;;;4928428;29;20461;-75
2022/05/16 02:02:57;;;;;;;3.33;2.97;;;;;;;;;;4944282;29;20189;-75
2022/05/16 02:05:23;;;;;;;2.88;2.53;;;;;;;;;;4944095;29;20185;-74
2022/05/16 02:07:50;;;;;;;3.60;3.15;;;;;;;;;;4944380;29;20197;-75
2022/05/16 02:10:16;;;;;;;3.70;3.33;;;;;;;;;;4928005;29;20173;-76
2022/05/16 02:12:43;;;;;;;3.30;3.00;;;;;;;;;;4941324;29;20604;-76
2022/05/16 02:15:10;;;;;;;4.50;3.25;;;;;;;;;;4942286;29;20198;-76
2022/05/16 02:17:37;;;;;;;4.05;3.72;;;;;;;;;;4946772;29;20212;-75
2022/05/16 02:20:03;;;;;;;3.75;3.45;;;;;;;;;;4943025;29;20223;-75
2022/05/16 02:25:15;;;;;;;5.75;3.50;;;;;;;;;;4945702;29;20213;-77
2022/05/16 02:27:41;;;;;;;4.20;3.40;;;;;;;;;;4949119;29;20177;-75
2022/05/16 02:30:07;;;;;;;5.82;4.55;;;;;;;;;;4947460;29;20269;-77
2022/05/16 02:32:33;;;;;;;5.80;3.58;;;;;;;;;;4947693;29;20185;-75
2022/05/16 02:34:59;;;;;;;7.50;4.30;;;;;;;;;;4948151;29;20224;-78
2022/05/16 02:37:25;;;;;;;5.27;3.90;;;;;;;;;;4941499;29;20468;-80
2022/05/16 02:39:51;;;;;;;7.07;4.22;;;;;;;;;;4949471;29;20432;-78
2022/05/16 02:42:17;;;;;;;5.32;4.38;;;;;;;;;;4947787;29;20212;-76
2022/05/16 02:44:44;;;;;;;6.87;3.80;;;;;;;;;;4947258;29;20185;-79
2022/05/16 02:47:20;;;;;;;4.43;3.47;;;;;;;;;;4947582;29;20440;-76
2022/05/16 02:49:46;;;;;;;6.45;5.03;;;;;;;;;;4947882;29;20212;-76
2022/05/16 02:52:12;;;;;;;8.10;4.40;;;;;;;;;;4947828;29;20209;-78
2022/05/16 02:54:38;;;;;;;6.30;5.70;;;;;;;;;;4948503;29;20192;-76
2022/05/16 02:57:05;;;;;;;4.78;4.38;;;;;;;;;;4947444;29;21290;-76
2022/05/16 02:59:34;;;;;;;6.45;4.30;;;;;;;;;;4948070;29;20185;-76
2022/05/16 03:02:01;;;;;;;5.55;4.82;;;;;;;;;;4947535;29;20185;-76
2022/05/16 03:04:27;;;;;;;9.23;4.60;;;;;;;;;;4933971;29;20200;-76
2022/05/16 03:06:54;;;;;;;6.18;5.03;;;;;;;;;;4928551;29;20249;-77
2022/05/16 03:09:21;;;;;;;4.60;4.18;;;;;;;;;;4946526;29;20195;-75
2022/05/16 03:11:47;;;;;;;6.05;5.45;;;;;;;;;;4947141;29;20527;-77
2022/05/16 03:14:13;;;;;;;7.75;4.20;;;;;;;;;;4946977;29;20217;-76
2022/05/16 03:16:39;;;;;;;7.80;5.07;;;;;;;;;;4947126;29;20240;-76
2022/05/16 03:19:05;;;;;;;10.55;5.10;;;;;;;;;;4942803;29;20454;-75
2022/05/16 03:21:32;;;;;;;7.85;4.97;;;;;;;;;;4946291;29;20177;-77
2022/05/16 03:23:58;;;;;;;9.82;4.72;;;;;;;;;;4929655;29;20185;-76
2022/05/16 03:26:24;;;;;;;6.38;4.65;;;;;;;;;;4947150;29;20193;-76
2022/05/16 03:28:51;;;;;;;6.93;5.35;;;;;;;;;;4929912;29;20193;-76
2022/05/16 03:31:17;;;;;;;7.10;4.95;;;;;;;;;;4929771;29;20632;-76
2022/05/16 03:33:43;;;;;;;7.65;5.53;;;;;;;;;;4946928;29;20237;-76
2022/05/16 03:36:09;;;;;;;6.28;5.10;;;;;;;;;;4947058;29;20244;-76
2022/05/16 03:41:21;;;;;;;6.25;5.65;;;;;;;;;;4947458;29;20188;-77
2022/05/16 03:43:47;;;;;;;7.65;5.50;;;;;;;;;;4929554;29;20181;-77
2022/05/16 03:46:13;;;;;;;9.30;6.05;;;;;;;;;;4929392;29;20193;-76
2022/05/16 03:48:39;;;;;;;8.50;6.15;;;;;;;;;;4947645;29;20180;-76
2022/05/16 03:51:07;;;;;;;6.72;5.15;;;;;;;;;;4946936;29;20210;-77
2022/05/16 03:53:35;;;;;;;6.15;5.55;;;;;;;;;;4928742;29;20260;-76
2022/05/16 03:56:01;;;;;;;8.75;6.45;;;;;;;;;;4929236;29;20243;-76
2022/05/16 03:58:27;;;;;;;8.73;5.60;;;;;;;;;;4929663;29;20193;-76
2022/05/16 04:00:53;;;;;;;10.93;6.35;;;;;;;;;;4947797;29;20272;-76
2022/05/16 04:03:19;;;;;;;6.65;5.55;;;;;;;;;;4946082;29;20189;-77
2022/05/16 04:05:45;;;;;;;6.13;5.60;;;;;;;;;;4946232;29;20199;-76
2022/05/16 04:08:11;;;;;;;9.93;6.40;;;;;;;;;;4929047;29;20445;-76
2022/05/16 04:10:37;;;;;;;9.27;6.23;;;;;;;;;;4929235;29;20517;-77
2022/05/16 04:13:03;;;;;;;11.85;6.85;;;;;;;;;;4930220;29;20448;-76
2022/05/16 04:15:29;;;;;;;8.73;5.63;;;;;;;;;;4946418;29;20189;-76
2022/05/16 04:17:55;;;;;;;7.53;6.72;;;;;;;;;;4945924;29;20444;-77
2022/05/16 04:20:21;;;;;;;9.15;6.90;;;;;;;;;;4945948;29;20177;-76
2022/05/16 04:22:48;;;;;;;7.35;6.53;;;;;;;;;;4946531;29;20261;-77
2022/05/16 04:25:17;;;;;;;7.80;6.38;;;;;;;;;;4929166;29;20178;-76
2022/05/16 04:27:43;;;;;;;10.13;6.43;;;;;;;;;;4942677;29;20182;-77
2022/05/16 04:30:09;;;;;;;6.90;6.20;;;;;;;;;;4943521;29;20665;-77
2022/05/16 04:32:36;;;;;;;11.70;7.30;;;;;;;;;;4945933;29;20285;-77
2022/05/16 04:35:02;;;;;;;7.63;6.82;;;;;;;;;;4928252;29;20196;-77
2022/05/16 04:37:32;;;;;;;9.32;7.47;;;;;;;;;;4929044;29;20233;-77
2022/05/16 04:39:59;;;;;;;11.55;8.00;;;;;;;;;;4946303;29;20178;-77
2022/05/16 04:42:40;;;;;;;10.13;8.70;;;;;;;;;;4946330;29;20181;-77
2022/05/16 04:45:08;;;;;;;8.98;7.70;;;;;;;;;;4942212;29;20350;-76
2022/05/16 04:47:34;;;;;;;9.50;8.45;;;;;;;;;;4928328;29;20263;-77
2022/05/16 04:50:00;;;;;;;11.00;7.57;;;;;;;;;;4945830;29;20666;-78
2022/05/16 04:52:25;;;;;;;12.47;8.87;;;;;;;;;;4946325;29;20469;-77
2022/05/16 04:54:52;;;;;;;9.80;8.37;;;;;;;;;;4941674;29;20441;-78
2022/05/16 04:57:18;;;;;;;11.45;9.65;;;;;;;;;;4942465;29;20978;-76
2022/05/16 04:59:47;;;;;;;9.37;8.37;;;;;;;;;;4945728;29;20196;-80
2022/05/16 05:02:14;;;;;;;12.30;8.73;;;;;;;;;;4941646;29;20459;-76
2022/05/16 05:04:40;;;;;;;11.77;8.60;;;;;;;;;;4945070;29;20264;-77
2022/05/16 05:07:06;;;;;;;10.00;7.90;;;;;;;;;;4946128;29;20185;-77
2022/05/16 05:14:31;;;;;;;10.63;9.20;;;;;;;;;;4928906;29;20593;-78
2022/05/16 05:15:15;;;;;;;10.00;8.52;;;;;;;;;;4923270;29;20198;-77
2022/05/16 05:17:42;;;;;;;10.27;8.75;;;;;;;;;;4924024;29;20217;-78
2022/05/16 05:20:13;;;;;;;8.98;7.93;;;;;;;;;;4923487;29;20194;-77
2022/05/16 05:22:40;;;;;;;11.18;8.43;;;;;;;;;;4924043;29;20192;-78
2022/05/16 05:25:06;;;;;;;12.52;10.00;;;;;;;;;;4923425;29;20190;-79
2022/05/16 05:27:32;;;;;;;10.25;9.15;;;;;;;;;;4925067;29;20326;-78
2022/05/16 05:29:58;;;;;;;9.02;8.13;;;;;;;;;;4923230;29;20213;-78
2022/05/16 05:32:24;;;;;;;12.32;9.38;;;;;;;;;;4904651;29;20608;-78
2022/05/16 05:34:50;;;;;;;9.47;8.47;;;;;;;;;;4922681;29;20205;-78
2022/05/16 05:37:16;;;;;;;14.40;9.10;;;;;;;;;;4923263;29;20484;-78
2022/05/16 05:39:42;;;;;;;11.48;8.75;;;;;;;;;;4909108;29;20181;-79
2022/05/16 05:42:08;;;;;;;9.95;8.95;;;;;;;;;;4923987;29;20197;-78
2022/05/16 05:44:34;;;;;;;9.48;8.15;;;;;;;;;;4923505;29;20210;-78
2022/05/16 05:47:01;;;;;;;10.70;9.60;;;;;;;;;;4923830;29;20687;-78
2022/05/16 05:49:27;;;;;;;9.10;7.80;;;;;;;;;;4924183;29;20442;-78
2022/05/16 05:51:53;;;;;;;9.80;8.48;;;;;;;;;;4940748;29;20217;-78
2022/05/16 05:54:19;;;;;;;11.80;8.65;;;;;;;;;;4931187;29;20216;-78
2022/05/16 05:56:45;;;;;;;13.80;9.40;;;;;;;;;;4929400;29;20201;-80
2022/05/16 05:59:11;;;;;;;9.50;8.27;;;;;;;;;;4938439;29;20437;-78
2022/05/16 06:01:37;;;;;;;8.87;7.97;;;;;;;;;;4931414;29;20453;-78
2022/05/16 06:04:03;;;;;;;9.00;8.10;;;;;;;;;;4931598;29;20421;-78
2022/05/16 06:06:29;;;;;;;10.55;8.50;;;;;;;;;;4931026;29;20201;-78
2022/05/16 06:08:55;;;;;;;9.38;7.57;;;;;;;;;;4947088;29;20201;-79
2022/05/16 06:11:27;;;;;;;12.57;8.20;;;;;;;;;;4948691;29;20181;-78
2022/05/16 06:13:53;;;;;;;8.32;7.53;;;;;;;;;;4948011;29;20926;-79
2022/05/16 06:16:19;;;;;;;9.55;7.88;;;;;;;;;;4948526;29;20210;-78
2022/05/16 06:18:45;;;;;;;14.73;8.50;;;;;;;;;;4947269;29;20359;-79
2022/05/16 06:21:11;;;;;;;16.27;9.47;;;;;;;;;;4948288;29;20477;-80
2022/05/16 06:23:37;;;;;;;13.10;9.17;;;;;;;;;;4931527;29;20505;-81
2022/05/16 06:26:03;;;;;;;13.18;7.72;;;;;;;;;;4930573;29;20539;-79
2022/05/16 06:28:32;;;;;;;10.57;8.43;;;;;;;;;;4948584;29;20201;-80
2022/05/16 06:30:58;;;;;;;8.80;7.55;;;;;;;;;;4948572;29;20513;-79
2022/05/16 06:33:31;;;;;;;7.78;6.40;;;;;;;;;;4946685;29;20198;-77
2022/05/16 06:35:57;;;;;;;8.75;7.25;;;;;;;;;;4947710;29;20203;-80
2022/05/16 06:38:25;;;;;;;9.95;8.63;;;;;;;;;;4931484;29;20186;-77
2022/05/16 06:40:51;;;;;;;8.50;7.07;;;;;;;;;;4948195;29;20602;-77
2022/05/16 06:43:18;;;;;;;10.07;7.10;;;;;;;;;;4948022;29;20554;-78
2022/05/16 06:45:44;;;;;;;11.68;7.20;;;;;;;;;;4927882;29;20184;-79
2022/05/16 06:48:10;;;;;;;12.40;7.75;;;;;;;;;;4945256;29;20218;-79
2022/05/16 06:50:36;;;;;;;9.90;6.72;;;;;;;;;;4931008;29;20218;-79
2022/05/16 06:53:03;;;;;;;8.45;7.32;;;;;;;;;;4931086;29;20236;-79
2022/05/16 06:55:30;;;;;;;7.97;6.47;;;;;;;;;;4947561;29;20250;-78
2022/05/16 06:57:56;;;;;;;11.00;6.95;;;;;;;;;;4943748;29;20187;-83
2022/05/16 07:00:22;;;;;;;7.18;6.47;;;;;;;;;;4945322;29;20276;-79
2022/05/16 07:02:49;;;;;;;9.48;6.25;;;;;;;;;;4945360;29;20755;-80
2022/05/16 07:05:15;;;;;;;12.30;6.43;;;;;;;;;;4944893;29;20651;-84
2022/05/16 07:07:41;;;;;;;7.88;6.32;;;;;;;;;;4947560;29;20518;-76
2022/05/16 07:10:07;;;;;;;9.90;6.40;;;;;;;;;;4929128;29;20208;-76
2022/05/16 07:12:34;;;;;;;10.13;7.13;;;;;;;;;;4946259;29;20359;-78
2022/05/16 07:15:00;;;;;;;7.80;7.13;;;;;;;;;;4940974;29;20195;-78
2022/05/16 07:17:27;;;;;;;6.70;5.75;;;;;;;;;;4944756;29;20313;-76
2022/05/16 07:19:53;;;;;;;8.20;6.55;;;;;;;;;;4945621;29;20225;-77
2022/05/16 07:22:22;;;;;;;9.23;6.43;;;;;;;;;;4946285;29;20188;-76
2022/05/16 07:24:48;;;;;;;9.30;6.00;;;;;;;;;;4947830;29;20432;-77
2022/05/16 07:29:59;;;;;;;7.40;6.68;;;;;;;;;;4946732;29;20239;-77
2022/05/16 07:32:32;;;;;;;7.40;5.27;;;;;;;;;;4945634;29;20196;-78
2022/05/16 07:35:01;;;;;;;7.10;5.57;;;;;;;;;;4921096;29;20510;-77
2022/05/16 07:37:27;;;;;;;10.88;5.93;;;;;;;;;;4942522;29;20214;-77
2022/05/16 07:39:53;;;;;;;6.70;5.53;;;;;;;;;;4945206;29;20692;-77
2022/05/16 07:42:19;;;;;;;5.63;5.13;;;;;;;;;;4946529;29;20434;-79
2022/05/16 07:44:45;;;;;;;8.07;5.10;;;;;;;;;;4945382;29;20587;-77
2022/05/16 07:47:11;;;;;;;10.53;6.17;;;;;;;;;;4928589;29;20812;-77
2022/05/16 07:49:36;;;;;;;7.70;4.87;;;;;;;;;;4930028;29;20478;-76
2022/05/16 07:52:03;;;;;;;8.37;6.03;;;;;;;;;;4929947;29;20443;-76
2022/05/16 07:54:29;;;;;;;7.20;6.10;;;;;;;;;;4944619;29;20466;-77
2022/05/16 07:56:55;;;;;;;10.53;6.97;;;;;;;;;;4946192;29;20215;-77
2022/05/16 07:59:21;;;;;;;8.25;5.50;;;;;;;;;;4939890;29;20444;-78
2022/05/16 08:01:47;;;;;;;9.40;5.53;;;;;;;;;;4945054;29;20274;-78
2022/05/16 08:04:14;;;;;;;6.75;4.60;;;;;;;;;;4926856;29;20183;-79
2022/05/16 08:06:40;;;;;;;6.13;4.78;;;;;;;;;;4942133;29;20206;-80
2022/05/16 08:11:51;;;;;;;8.30;4.93;;;;;;;;;;4945736;29;20205;-80
2022/05/16 08:14:17;;;;;;;11.27;5.77;;;;;;;;;;4926744;29;20189;-78
2022/05/16 08:16:43;;;;;;;8.17;5.37;;;;;;;;;;4945721;29;20477;-81
2022/05/16 08:19:09;;;;;;;8.03;5.20;;;;;;;;;;4946464;29;20514;-80
2022/05/16 08:21:35;;;;;;;7.77;5.23;;;;;;;;;;4945889;29;20430;-81
2022/05/16 08:24:02;;;;;;;9.52;5.75;;;;;;;;;;4926757;29;20431;-81
2022/05/16 08:26:28;;;;;;;10.07;5.00;;;;;;;;;;4945059;29;20449;-79
2022/05/16 08:28:54;;;;;;;11.77;6.27;;;;;;;;;;4945040;29;20430;-80
2022/05/16 08:31:21;;;;;;;8.23;5.23;;;;;;;;;;4944817;29;20449;-81
2022/05/16 08:33:47;;;;;;;7.45;5.25;;;;;;;;;;4929425;29;20454;-81
2022/05/16 08:41:55;;;;;;;9.88;5.38;;;;;;;;;;5092651;28;20204;-79
2022/05/16 08:44:21;;;;;;;9.23;5.03;;;;;;;;;;5094986;28;20272;-77
2022/05/16 08:46:55;;;;;;;5.47;3.90;;;;;;;;;;5089606;28;20189;-78
2022/05/16 08:49:27;;;;;;;11.38;4.97;;;;;;;;;;5080731;28;20198;-78
2022/05/16 08:51:59;;;;;;;6.45;4.80;;;;;;;;;;5092342;28;20662;-79
2022/05/16 08:54:25;;;;;;;6.22;5.07;;;;;;;;;;5097799;28;20319;-78
2022/05/16 08:56:51;;;;;;;7.50;4.72;;;;;;;;;;5091933;28;20179;-79
2022/05/16 08:59:21;;;;;;;6.93;4.95;;;;;;;;;;5090637;28;20186;-79
2022/05/16 09:01:49;;;;;;;8.57;4.97;;;;;;;;;;5094226;28;20209;-79
2022/05/16 09:04:19;;;;;;;4.70;4.07;;;;;;;;;;5083482;28;20194;-79
2022/05/16 09:06:53;;;;;;;5.38;4.70;;;;;;;;;;5096493;28;20183;-79
2022/05/16 09:09:21;;;;;;;5.53;4.53;;;;;;;;;;5097503;28;20196;-79
2022/05/16 09:11:47;;;;;;;7.00;4.70;;;;;;;;;;5098103;28;20181;-78
2022/05/16 09:14:28;;;;;;;6.07;4.70;;;;;;;;;;5096865;28;20213;-78
2022/05/16 09:16:58;;;;;;;5.05;4.05;;;;;;;;;;5090367;28;20468;-77
2022/05/16 09:19:24;;;;;;;5.53;4.88;;;;;;;;;;5097081;28;20182;-80
2022/05/16 09:22:09;;;;;;;5.63;4.37;;;;;;;;;;5090317;28;20163;-79
2022/05/16 09:24:36;;;;;;;10.00;3.88;;;;;;;;;;5085161;28;20503;-81
2022/05/16 09:27:05;;;;;;;4.65;3.83;;;;;;;;;;5084812;28;20190;-80
2022/05/16 09:29:34;;;;;;;4.32;3.92;;;;;;;;;;5088878;28;20190;-77
2022/05/16 09:32:04;;;;;;;6.30;4.43;;;;;;;;;;5091072;28;20278;-78
2022/05/16 09:34:30;;;;;;;6.35;4.28;;;;;;;;;;5081206;28;20225;-78
2022/05/16 09:36:56;;;;;;;6.13;3.92;;;;;;;;;;5105156;28;20262;-82
2022/05/16 09:39:24;;;;;;;5.83;3.37;;;;;;;;;;5093708;28;20191;-80
2022/05/16 09:41:55;;;;;;;5.40;4.03;;;;;;;;;;5097345;28;20495;-81
2022/05/16 09:44:35;;;;;;;4.57;3.70;;;;;;;;;;5096690;28;20188;-80
2022/05/16 09:47:26;;;;;;;5.30;3.50;;;;;;;;;;5073373;28;20187;-80
2022/05/16 09:50:04;;;;;;;4.80;3.80;;;;;;;;;;5091226;28;20458;-80
2022/05/16 09:52:32;;;;;;;12.30;3.20;;;;;;;;;;5077363;28;20455;-80
2022/05/16 09:54:59;;;;;;;3.87;2.80;;;;;;;;;;5097794;28;20560;-79
2022/05/16 09:57:26;;;;;;;5.70;2.50;;;;;;;;;;5073256;28;20452;-85
2022/05/16 09:59:58;;;;;;;4.20;3.07;;;;;;;;;;5071817;28;20434;-81
2022/05/16 10:02:24;;;;;;;6.67;3.20;;;;;;;;;;5078758;28;20446;-83
2022/05/16 10:04:55;;;;;;;5.90;3.30;;;;;;;;;;5078860;28;20416;-81
2022/05/16 10:07:31;;;;;;;4.50;3.60;;;;;;;;;;5082842;28;20472;-78
2022/05/16 10:09:58;;;;;;;4.40;2.70;;;;;;;;;;5068661;28;20430;-80
2022/05/16 10:12:26;;;;;;;6.00;2.97;;;;;;;;;;5078377;28;20439;-79
2022/05/16 10:14:52;;;;;;;2.97;2.67;;;;;;;;;;5081951;28;20476;-79
2022/05/16 10:17:24;;;;;;;4.13;3.10;;;;;;;;;;5078416;28;20479;-80
2022/05/16 10:19:52;;;;;;;5.60;2.60;;;;;;;;;;5080341;28;20430;-81
2022/05/16 10:22:20;;;;;;;6.33;3.50;;;;;;;;;;5082386;28;20423;-80
2022/05/16 10:24:52;;;;;;;4.20;2.90;;;;;;;;;;5070614;28;20415;-80
2022/05/16 10:27:22;;;;;;;3.87;2.90;;;;;;;;;;5072727;28;20443;-83
2022/05/16 10:29:52;;;;;;;2.80;2.60;;;;;;;;;;5069860;28;20987;-85
2022/05/16 10:35:20;;;;;;;3.17;2.47;;;;;;;;;;5077224;28;20857;-81
2022/05/16 10:37:47;;;;;;;6.50;2.90;;;;;;;;;;5073257;28;20413;-82
2022/05/16 10:40:30;;;;;;;3.00;2.77;;;;;;;;;;5075269;28;20405;-79
2022/05/16 10:43:21;;;;;;;2.40;2.20;;;;;;;;;;5071965;28;20465;-82
2022/05/16 10:45:50;;;;;;;4.43;2.60;;;;;;;;;;5074964;28;20435;-80
2022/05/16 10:48:36;;;;;;;6.63;3.50;;;;;;;;;;5071645;28;20527;-80
2022/05/16 10:51:17;;;;;;;4.30;3.30;;;;;;;;;;5074796;28;20441;-81
2022/05/16 10:53:48;;;;;;;5.73;2.90;;;;;;;;;;5082536;28;20434;-81
2022/05/16 10:56:15;;;;;;;4.30;2.50;;;;;;;;;;5077255;28;20541;-82
2022/05/16 10:58:56;;;;;;;3.50;3.13;;;;;;;;;;5066059;28;20465;-79
2022/05/16 11:01:27;;;;;;;2.87;2.40;;;;;;;;;;5066526;28;20403;-85
2022/05/16 11:03:53;;;;;;;4.73;2.30;;;;;;;;;;5078847;28;20412;-82
2022/05/16 11:06:19;;;;;;;5.63;2.37;;;;;;;;;;5073215;28;20443;-81
2022/05/16 11:08:57;;;;;;;3.10;2.90;;;;;;;;;;5074629;28;20438;-80
2022/05/16 11:11:25;;;;;;;6.50;2.50;;;;;;;;;;5075405;28;20433;-80
2022/05/16 11:14:07;;;;;;;5.40;2.20;;;;;;;;;;5072552;28;20409;-88
2022/05/16 11:16:40;;;;;;;3.10;2.33;;;;;;;;;;5070102;28;20459;-81
2022/05/16 11:19:20;;;;;;;5.50;3.20;;;;;;;;;;5089112;28;20457;-79
2022/05/16 11:22:01;;;;;;;3.73;2.23;;;;;;;;;;5083444;28;20389;-81
2022/05/16 11:24:27;;;;;;;3.00;2.20;;;;;;;;;;5082528;28;20416;-80
2022/05/16 11:26:53;;;;;;;5.20;2.30;;;;;;;;;;5074127;28;20431;-79
2022/05/16 11:29:25;;;;;;;2.80;2.10;;;;;;;;;;5078014;28;20513;-82
2022/05/16 11:31:56;;;;;;;4.63;2.07;;;;;;;;;;5067919;28;20418;-81
2022/05/16 11:34:41;;;;;;;3.10;2.20;;;;;;;;;;5077909;28;20465;-79
2022/05/16 11:37:14;;;;;;;4.40;1.90;;;;;;;;;;5080078;28;20415;-78
2022/05/16 11:39:52;;;;;;;3.67;3.37;;;;;;;;;;5080454;28;20415;-79
2022/05/16 11:42:25;;;;;;;2.83;2.23;;;;;;;;;;5075630;28;20407;-79
2022/05/16 11:44:55;;;;;;;3.90;2.50;;;;;;;;;;5074506;28;20443;-78
2022/05/16 11:47:25;;;;;;;3.50;1.70;;;;;;;;;;5072822;28;20425;-80
2022/05/16 11:50:03;;;;;;;6.30;2.27;;;;;;;;;;5075306;28;20454;-78
2022/05/16 11:52:35;;;;;;;6.70;2.57;;;;;;;;;;5073397;28;20482;-79
2022/05/16 12:00:51;;;;;;;5.57;2.30;;;;;;;;;;5078915;28;20473;-78
2022/05/16 12:03:19;;;;;;;4.40;2.50;;;;;;;;;;5079137;28;20436;-83
2022/05/16 12:06:12;;;;;;;1.87;1.30;;;;;;;;;;5078471;28;20439;-79
2022/05/16 12:08:40;;;;;;;2.73;2.10;;;;;;;;;;5079223;28;20966;-79
2022/05/16 12:11:06;;;;;;;4.00;1.90;;;;;;;;;;5085309;28;20430;-83
2022/05/16 12:13:34;;;;;;;7.73;1.70;;;;;;;;;;5080588;28;20429;-79
2022/05/16 12:16:15;;;;;;;2.80;2.10;;;;;;;;;;5069727;28;20461;-79
2022/05/16 12:18:43;;;;;;;1.97;1.70;;;;;;;;;;5071521;28;20424;-80
2022/05/16 12:21:32;;;;;;;5.27;1.90;;;;;;;;;;5077048;28;20437;-79
2022/05/16 12:24:00;;;;;;;4.80;2.53;;;;;;;;;;5075007;28;20446;-80
2022/05/16 12:26:26;;;;;;;11.60;3.93;;;;;;;;;;5075531;28;20418;-79
2022/05/16 12:29:11;;;;;;;23.87;6.43;;;;;;;;;;5083412;28;20420;-79
2022/05/16 12:31:49;;;;;;;3.37;1.90;;;;;;;;;;5063278;28;20774;-82
2022/05/16 12:34:35;;;;;;;45.20;10.57;;;;;;;;;;5064974;28;20937;-80
2022/05/16 12:37:02;;;;;;;4.13;1.57;;;;;;;;;;5078651;28;20476;-79
2022/05/16 12:39:32;;;;;;;7.07;2.67;;;;;;;;;;5065477;28;20462;-81
2022/05/16 12:42:00;;;;;;;3.53;2.40;;;;;;;;;;5067967;28;20427;-80
2022/05/16 12:44:26;;;;;;;2.80;2.13;;;;;;;;;;5074347;28;20947;-80
2022/05/16 12:46:52;;;;;;;5.03;2.00;;;;;;;;;;5069147;28;20508;-82
2022/05/16 12:49:25;;;;;;;7.60;2.80;;;;;;;;;;5072709;28;20455;-81
2022/05/16 12:52:09;;;;;;;2.80;1.63;;;;;;;;;;5068165;28;20415;-80
2022/05/16 12:54:35;;;;;;;1.60;1.50;;;;;;;;;;5066827;28;20490;-79
2022/05/16 12:57:04;;;;;;;2.50;1.30;;;;;;;;;;5065177;28;20443;-81
2022/05/16 12:59:36;;;;;;;2.60;1.67;;;;;;;;;;5077311;28;20434;-85
2022/05/16 13:02:02;;;;;;;2.97;1.50;;;;;;;;;;5073645;28;20508;-81
2022/05/16 13:04:41;;;;;;;5.57;2.00;;;;;;;;;;5069360;28;20440;-82
2022/05/16 13:07:07;;;;;;;8.13;2.37;;;;;;;;;;5094676;28;20487;-87
2022/05/16 13:09:52;;;;;;;10.93;2.70;;;;;;;;;;5091045;28;20421;-81
2022/05/16 13:12:32;;;;;;;6.73;1.40;;;;;;;;;;5072934;28;20588;-80
2022/05/16 13:15:11;;;;;;;5.30;1.97;;;;;;;;;;5075245;28;20496;-81
2022/05/16 13:17:44;;;;;;;1.80;1.20;;;;;;;;;;5071696;28;20440;-83
2022/05/16 13:20:13;;;;;;;3.47;2.17;;;;;;;;;;5069384;28;20438;-79
2022/05/16 13:22:41;;;;;;;2.43;1.70;;;;;;;;;;5073202;28;20428;-79
2022/05/16 13:25:08;;;;;;;6.73;2.17;;;;;;;;;;5086067;28;20414;-78
2022/05/16 13:30:22;;;;;;;4.77;1.67;;;;;;;;;;5078751;28;20454;-80
2022/05/16 13:32:48;;;;;;;3.90;1.97;;;;;;;;;;5077047;28;20534;-80
2022/05/16 13:35:35;;;;;;;2.93;1.83;;;;;;;;;;5069478;28;20501;-78
2022/05/16 13:38:03;;;;;;;2.60;1.80;;;;;;;;;;5070324;28;20432;-79
2022/05/16 13:40:43;;;;;;;3.20;2.10;;;;;;;;;;5080236;28;20438;-80
2022/05/16 13:43:35;;;;;;;2.57;1.60;;;;;;;;;;5074916;28;20475;-79
2022/05/16 13:46:05;;;;;;;3.20;2.03;;;;;;;;;;5068552;28;20428;-80
2022/05/16 13:48:31;;;;;;;5.23;1.30;;;;;;;;;;5080725;28;20443;-80
2022/05/16 13:50:59;;;;;;;6.40;1.80;;;;;;;;;;5080746;28;20440;-79
2022/05/16 13:53:29;;;;;;;5.67;1.40;;;;;;;;;;5080441;28;20786;-81
2022/05/16 13:55:56;;;;;;;2.63;1.50;;;;;;;;;;5077965;28;20459;-79
2022/05/16 13:58:22;;;;;;;1.73;1.30;;;;;;;;;;5074819;28;20436;-79
2022/05/16 14:01:10;;;;;;;2.10;1.83;;;;;;;;;;5083537;28;20937;-81
2022/05/16 14:03:36;;;;;;;3.43;1.30;;;;;;;;;;5077466;28;20684;-80
2022/05/16 14:06:03;;;;;;;4.87;1.40;;;;;;;;;;5084418;28;20425;-82
2022/05/16 14:08:40;;;;;;;3.30;1.90;;;;;;;;;;5085071;28;20439;-81
2022/05/16 14:11:07;;;;;;;1.93;1.13;;;;;;;;;;5087036;28;20431;-82
2022/05/16 14:13:38;;;;;;;2.00;1.33;;;;;;;;;;5066855;28;20426;-85
2022/05/16 14:16:06;;;;;;;4.00;1.40;;;;;;;;;;5080117;28;20463;-82
2022/05/16 14:18:32;;;;;;;3.33;1.33;;;;;;;;;;5079959;28;20417;-82
2022/05/16 14:21:06;;;;;;;5.17;1.70;;;;;;;;;;5075884;28;20927;-80
2022/05/16 14:23:34;;;;;;;1.43;1.00;;;;;;;;;;5083713;28;20437;-83
2022/05/16 14:26:14;;;;;;;2.70;1.40;;;;;;;;;;5076205;28;20469;-82
2022/05/16 14:28:45;;;;;;;2.43;1.07;;;;;;;;;;5069967;28;20529;-86
2022/05/16 14:31:19;;;;;;;2.87;1.80;;;;;;;;;;5091406;28;20424;-80
2022/05/16 14:33:59;;;;;;;1.70;1.00;;;;;;;;;;5070645;28;20457;-81
2022/05/16 14:36:29;;;;;;;1.53;0.90;;;;;;;;;;5076397;28;20525;-83
2022/05/16 14:39:03;;;;;;;3.33;1.10;;;;;;;;;;5078756;28;20457;-81
2022/05/16 14:41:30;;;;;;;5.80;1.50;;;;;;;;;;5077071;28;20421;-80
2022/05/16 14:44:04;;;;;;;3.47;1.20;;;;;;;;;;5067026;28;20957;-81
2022/05/16 14:46:44;;;;;;;2.60;1.50;;;;;;;;;;5080330;28;20454;-80
2022/05/16 14:49:15;;;;;;;2.93;1.60;;;;;;;;;;5079772;28;20419;-80
2022/05/16 14:51:43;;;;;;;2.00;1.00;;;;;;;;;;5092237;28;20495;-81
2022/05/16 14:54:17;;;;;;;2.60;1.30;;;;;;;;;;5079011;28;20428;-83
2022/05/16 14:56:43;;;;;;;2.53;2.33;;;;;;;;;;5077714;28;20407;-80
2022/05/16 14:59:09;;;;;;;3.20;1.70;;;;;;;;;;5072775;28;20443;-80
2022/05/16 15:04:19;;;;;;;2.83;1.30;;;;;;;;;;5074558;28;20466;-80
2022/05/16 15:06:46;;;;;;;3.67;1.00;;;;;;;;;;5069319;28;20793;-80
2022/05/16 15:09:13;;;;;;;3.60;2.30;;;;;;;;;;5070455;28;20413;-80
2022/05/16 15:11:43;;;;;;;3.80;1.37;;;;;;;;;;5074564;28;20411;-81
2022/05/16 15:14:09;;;;;;;2.70;1.90;;;;;;;;;;5075280;28;20774;-83
2022/05/16 15:16:35;;;;;;;3.23;1.40;;;;;;;;;;5073735;28;20514;-80
2022/05/16 15:19:01;;;;;;;1.97;1.00;;;;;;;;;;5087463;28;20480;-79
2022/05/16 15:21:28;;;;;;;1.37;1.27;;;;;;;;;;5078830;28;20445;-82
2022/05/16 15:23:54;;;;;;;1.33;1.00;;;;;;;;;;5079302;28;20784;-81
2022/05/16 15:26:20;;;;;;;2.10;0.83;;;;;;;;;;5089282;28;20437;-80
2022/05/16 15:28:46;;;;;;;1.20;0.90;;;;;;;;;;5080224;28;20496;-81